sensor_id;sensor_type;location;lat;lon;timestamp;temperature;humidity
14182;DHT22;7171;50.936;6.764;2022-07-23T00:00:03;18.20;99.90
14182;DHT22;7171;50.936;6.764;2022-07-23T00:02:30;18.10;99.90
14182;DHT22;7171;50.936;6.764;2022-07-23T00:04:56;18.10;99.90
14182;DHT22;7171;50.936;6.764;2022-07-23T00:07:25;18.10;99.90
14182;DHT22;7171;50.936;6.764;2022-07-23T00:09:51;18.10;99.90
14182;DHT22;7171;50.936;6.764;2022-07-23T00:12:18;18.00;99.90
14182;DHT22;7171;50.936;6.764;2022-07-23T00:14:45;18.00;99.90
14182;DHT22;7171;50.936;6.764;2022-07-23T00:17:12;18.00;99.90
14182;DHT22;7171;50.936;6.764;2022-07-23T00:19:39;18.00;99.90
14182;DHT22;7171;50.936;6.764;2022-07-23T00:22:05;18.00;99.90
14182;DHT22;7171;50.936;6.764;2022-07-23T00:24:33;18.00;99.90
14182;DHT22;7171;50.936;6.764;2022-07-23T00:27:00;18.00;99.90
14182;DHT22;7171;50.936;6.764;2022-07-23T00:29:27;18.00;99.90
14182;DHT22;7171;50.936;6.764;2022-07-23T00:31:54;18.00;99.90
14182;DHT22;7171;50.936;6.764;2022-07-23T00:34:21;18.00;99.90
14182;DHT22;7171;50.936;6.764;2022-07-23T00:36:47;18.10;99.90
14182;DHT22;7171;50.936;6.764;2022-07-23T00:39:14;18.00;99.90
14182;DHT22;7171;50.936;6.764;2022-07-23T00:41:42;18.00;99.90
14182;DHT22;7171;50.936;6.764;2022-07-23T00:44:16;18.00;99.90
14182;DHT22;7171;50.936;6.764;2022-07-23T00:46:46;18.00;99.90
14182;DHT22;7171;50.936;6.764;2022-07-23T00:49:13;18.10;99.90
14182;DHT22;7171;50.936;6.764;2022-07-23T00:51:40;18.10;99.90
14182;DHT22;7171;50.936;6.764;2022-07-23T00:54:06;18.10;99.90
14182;DHT22;7171;50.936;6.764;2022-07-23T00:56:34;18.10;99.90
14182;DHT22;7171;50.936;6.764;2022-07-23T00:59:03;18.10;99.90
14182;DHT22;7171;50.936;6.764;2022-07-23T01:01:29;18.10;99.90
14182;DHT22;7171;50.936;6.764;2022-07-23T01:03:56;18.10;99.90
14182;DHT22;7171;50.936;6.764;2022-07-23T01:06:23;18.10;99.90
14182;DHT22;7171;50.936;6.764;2022-07-23T01:08:50;18.10;99.90
14182;DHT22;7171;50.936;6.764;2022-07-23T01:11:18;18.10;99.90
14182;DHT22;7171;50.936;6.764;2022-07-23T01:13:45;18.10;99.90
14182;DHT22;7171;50.936;6.764;2022-07-23T01:16:14;18.10;99.90
14182;DHT22;7171;50.936;6.764;2022-07-23T01:18:41;18.10;99.90
14182;DHT22;7171;50.936;6.764;2022-07-23T01:21:08;18.10;99.90
14182;DHT22;7171;50.936;6.764;2022-07-23T01:23:37;18.00;99.90
14182;DHT22;7171;50.936;6.764;2022-07-23T01:26:04;18.10;99.90
14182;DHT22;7171;50.936;6.764;2022-07-23T01:28:31;18.10;99.90
14182;DHT22;7171;50.936;6.764;2022-07-23T01:30:58;18.10;99.90
14182;DHT22;7171;50.936;6.764;2022-07-23T01:33:25;18.10;99.90
14182;DHT22;7171;50.936;6.764;2022-07-23T01:35:51;18.10;99.90
14182;DHT22;7171;50.936;6.764;2022-07-23T01:38:18;18.10;99.90
14182;DHT22;7171;50.936;6.764;2022-07-23T01:40:46;18.10;99.90
14182;DHT22;7171;50.936;6.764;2022-07-23T01:43:13;18.00;99.90
14182;DHT22;7171;50.936;6.764;2022-07-23T01:45:40;18.00;99.90
14182;DHT22;7171;50.936;6.764;2022-07-23T01:48:08;18.00;99.90
14182;DHT22;7171;50.936;6.764;2022-07-23T01:50:35;18.00;99.90
14182;DHT22;7171;50.936;6.764;2022-07-23T01:53:01;17.90;99.90
14182;DHT22;7171;50.936;6.764;2022-07-23T01:55:28;18.00;99.90
14182;DHT22;7171;50.936;6.764;2022-07-23T01:57:56;18.10;99.90
14182;DHT22;7171;50.936;6.764;2022-07-23T02:00:23;18.00;99.90
14182;DHT22;7171;50.936;6.764;2022-07-23T02:02:50;18.00;99.90
14182;DHT22;7171;50.936;6.764;2022-07-23T02:05:16;18.00;99.90
14182;DHT22;7171;50.936;6.764;2022-07-23T02:07:43;18.00;99.90
14182;DHT22;7171;50.936;6.764;2022-07-23T02:10:10;18.00;99.90
14182;DHT22;7171;50.936;6.764;2022-07-23T02:12:37;17.90;99.90
14182;DHT22;7171;50.936;6.764;2022-07-23T02:15:06;17.90;99.90
14182;DHT22;7171;50.936;6.764;2022-07-23T02:17:33;17.90;99.90
14182;DHT22;7171;50.936;6.764;2022-07-23T02:20:00;17.80;99.90
14182;DHT22;7171;50.936;6.764;2022-07-23T02:22:27;17.80;99.90
14182;DHT22;7171;50.936;6.764;2022-07-23T02:24:54;17.80;99.90
14182;DHT22;7171;50.936;6.764;2022-07-23T02:27:21;17.80;99.90
14182;DHT22;7171;50.936;6.764;2022-07-23T02:29:48;17.70;99.90
14182;DHT22;7171;50.936;6.764;2022-07-23T02:32:16;17.70;99.90
14182;DHT22;7171;50.936;6.764;2022-07-23T02:34:43;17.70;99.90
14182;DHT22;7171;50.936;6.764;2022-07-23T02:37:10;17.70;99.90
14182;DHT22;7171;50.936;6.764;2022-07-23T02:39:37;17.70;99.90
14182;DHT22;7171;50.936;6.764;2022-07-23T02:42:04;17.70;99.90
14182;DHT22;7171;50.936;6.764;2022-07-23T02:44:30;17.70;99.90
14182;DHT22;7171;50.936;6.764;2022-07-23T02:46:57;17.70;99.90
14182;DHT22;7171;50.936;6.764;2022-07-23T02:49:25;17.70;99.90
14182;DHT22;7171;50.936;6.764;2022-07-23T02:51:52;17.70;99.90
14182;DHT22;7171;50.936;6.764;2022-07-23T02:54:19;17.70;99.90
14182;DHT22;7171;50.936;6.764;2022-07-23T02:56:46;17.70;99.90
14182;DHT22;7171;50.936;6.764;2022-07-23T02:59:13;17.50;99.90
14182;DHT22;7171;50.936;6.764;2022-07-23T03:01:40;17.60;99.90
14182;DHT22;7171;50.936;6.764;2022-07-23T03:04:07;17.60;99.90
14182;DHT22;7171;50.936;6.764;2022-07-23T03:06:35;17.50;99.90
14182;DHT22;7171;50.936;6.764;2022-07-23T03:09:02;17.50;99.90
14182;DHT22;7171;50.936;6.764;2022-07-23T03:11:29;17.50;99.90
14182;DHT22;7171;50.936;6.764;2022-07-23T03:13:56;17.60;99.90
14182;DHT22;7171;50.936;6.764;2022-07-23T03:16:23;17.40;99.90
14182;DHT22;7171;50.936;6.764;2022-07-23T03:18:50;17.40;99.90
14182;DHT22;7171;50.936;6.764;2022-07-23T03:21:16;17.40;99.90
14182;DHT22;7171;50.936;6.764;2022-07-23T03:23:45;17.30;99.90
14182;DHT22;7171;50.936;6.764;2022-07-23T03:26:11;17.20;99.90
14182;DHT22;7171;50.936;6.764;2022-07-23T03:28:38;17.20;99.90
14182;DHT22;7171;50.936;6.764;2022-07-23T03:31:05;17.10;99.90
14182;DHT22;7171;50.936;6.764;2022-07-23T03:33:32;17.10;99.90
14182;DHT22;7171;50.936;6.764;2022-07-23T03:35:58;17.00;99.90
14182;DHT22;7171;50.936;6.764;2022-07-23T03:38:26;16.90;99.90
14182;DHT22;7171;50.936;6.764;2022-07-23T03:40:54;16.90;99.90
14182;DHT22;7171;50.936;6.764;2022-07-23T03:43:20;16.80;99.90
14182;DHT22;7171;50.936;6.764;2022-07-23T03:45:49;16.80;99.90
14182;DHT22;7171;50.936;6.764;2022-07-23T03:48:16;16.80;99.90
14182;DHT22;7171;50.936;6.764;2022-07-23T03:50:43;16.70;99.90
14182;DHT22;7171;50.936;6.764;2022-07-23T03:53:10;16.70;99.90
14182;DHT22;7171;50.936;6.764;2022-07-23T03:55:36;16.60;99.90
14182;DHT22;7171;50.936;6.764;2022-07-23T03:58:05;16.70;99.90
14182;DHT22;7171;50.936;6.764;2022-07-23T04:00:31;16.60;99.90
14182;DHT22;7171;50.936;6.764;2022-07-23T04:02:58;16.60;99.90
14182;DHT22;7171;50.936;6.764;2022-07-23T04:05:25;16.60;99.90
14182;DHT22;7171;50.936;6.764;2022-07-23T04:07:52;16.60;99.90
14182;DHT22;7171;50.936;6.764;2022-07-23T04:10:19;16.60;99.90
14182;DHT22;7171;50.936;6.764;2022-07-23T04:12:45;16.60;99.90
14182;DHT22;7171;50.936;6.764;2022-07-23T04:15:13;16.60;99.90
14182;DHT22;7171;50.936;6.764;2022-07-23T04:17:40;16.60;99.90
14182;DHT22;7171;50.936;6.764;2022-07-23T04:20:08;16.60;99.90
14182;DHT22;7171;50.936;6.764;2022-07-23T04:22:35;16.70;99.90
14182;DHT22;7171;50.936;6.764;2022-07-23T04:25:02;16.70;99.90
14182;DHT22;7171;50.936;6.764;2022-07-23T04:27:29;16.80;99.90
14182;DHT22;7171;50.936;6.764;2022-07-23T04:29:58;16.90;99.90
14182;DHT22;7171;50.936;6.764;2022-07-23T04:32:27;16.90;99.90
14182;DHT22;7171;50.936;6.764;2022-07-23T04:34:53;17.00;99.90
14182;DHT22;7171;50.936;6.764;2022-07-23T04:37:20;17.10;99.90
14182;DHT22;7171;50.936;6.764;2022-07-23T04:39:47;17.10;99.90
14182;DHT22;7171;50.936;6.764;2022-07-23T04:42:13;17.20;99.90
14182;DHT22;7171;50.936;6.764;2022-07-23T04:44:40;17.30;99.90
14182;DHT22;7171;50.936;6.764;2022-07-23T04:47:07;17.30;99.90
14182;DHT22;7171;50.936;6.764;2022-07-23T04:49:35;17.30;99.90
14182;DHT22;7171;50.936;6.764;2022-07-23T04:52:02;17.40;99.90
14182;DHT22;7171;50.936;6.764;2022-07-23T04:54:29;17.50;99.90
14182;DHT22;7171;50.936;6.764;2022-07-23T04:56:56;17.50;99.90
14182;DHT22;7171;50.936;6.764;2022-07-23T04:59:22;17.40;99.90
14182;DHT22;7171;50.936;6.764;2022-07-23T05:01:49;17.60;99.90
14182;DHT22;7171;50.936;6.764;2022-07-23T05:04:16;17.50;99.90
14182;DHT22;7171;50.936;6.764;2022-07-23T05:06:44;17.50;99.90
14182;DHT22;7171;50.936;6.764;2022-07-23T05:09:12;17.50;99.90
14182;DHT22;7171;50.936;6.764;2022-07-23T05:11:39;17.40;99.90
14182;DHT22;7171;50.936;6.764;2022-07-23T05:14:05;17.40;99.90
14182;DHT22;7171;50.936;6.764;2022-07-23T05:16:32;17.30;99.90
14182;DHT22;7171;50.936;6.764;2022-07-23T05:18:59;17.30;99.90
14182;DHT22;7171;50.936;6.764;2022-07-23T05:21:26;17.40;99.90
14182;DHT22;7171;50.936;6.764;2022-07-23T05:23:54;17.20;99.90
14182;DHT22;7171;50.936;6.764;2022-07-23T05:26:20;17.40;99.90
14182;DHT22;7171;50.936;6.764;2022-07-23T05:28:47;17.40;99.90
14182;DHT22;7171;50.936;6.764;2022-07-23T05:31:14;17.50;99.90
14182;DHT22;7171;50.936;6.764;2022-07-23T05:33:41;17.50;99.90
14182;DHT22;7171;50.936;6.764;2022-07-23T05:36:09;17.40;99.90
14182;DHT22;7171;50.936;6.764;2022-07-23T05:38:36;17.70;99.90
14182;DHT22;7171;50.936;6.764;2022-07-23T05:41:04;17.70;99.90
14182;DHT22;7171;50.936;6.764;2022-07-23T05:43:31;17.80;99.90
14182;DHT22;7171;50.936;6.764;2022-07-23T05:45:58;17.80;99.90
14182;DHT22;7171;50.936;6.764;2022-07-23T05:48:25;17.90;99.90
14182;DHT22;7171;50.936;6.764;2022-07-23T05:50:52;18.00;99.90
14182;DHT22;7171;50.936;6.764;2022-07-23T05:53:18;18.00;99.90
14182;DHT22;7171;50.936;6.764;2022-07-23T05:55:45;18.00;99.90
14182;DHT22;7171;50.936;6.764;2022-07-23T05:58:13;18.20;99.90
14182;DHT22;7171;50.936;6.764;2022-07-23T06:00:40;18.20;99.90
14182;DHT22;7171;50.936;6.764;2022-07-23T06:03:07;18.20;99.90
14182;DHT22;7171;50.936;6.764;2022-07-23T06:05:34;18.30;99.90
14182;DHT22;7171;50.936;6.764;2022-07-23T06:08:01;18.30;99.90
14182;DHT22;7171;50.936;6.764;2022-07-23T06:10:27;18.40;99.90
14182;DHT22;7171;50.936;6.764;2022-07-23T06:12:54;18.40;99.90
14182;DHT22;7171;50.936;6.764;2022-07-23T06:15:22;18.40;99.90
14182;DHT22;7171;50.936;6.764;2022-07-23T06:17:49;18.40;99.90
14182;DHT22;7171;50.936;6.764;2022-07-23T06:20:16;18.40;99.90
14182;DHT22;7171;50.936;6.764;2022-07-23T06:22:43;18.50;99.90
14182;DHT22;7171;50.936;6.764;2022-07-23T06:25:09;18.50;99.90
14182;DHT22;7171;50.936;6.764;2022-07-23T06:27:36;18.50;99.90
14182;DHT22;7171;50.936;6.764;2022-07-23T06:30:04;18.50;99.90
14182;DHT22;7171;50.936;6.764;2022-07-23T06:32:32;18.50;99.90
14182;DHT22;7171;50.936;6.764;2022-07-23T06:34:59;18.20;99.90
14182;DHT22;7171;50.936;6.764;2022-07-23T06:37:26;18.50;99.90
14182;DHT22;7171;50.936;6.764;2022-07-23T06:39:52;18.50;99.90
14182;DHT22;7171;50.936;6.764;2022-07-23T06:42:19;18.50;99.90
14182;DHT22;7171;50.936;6.764;2022-07-23T06:44:46;18.50;99.90
14182;DHT22;7171;50.936;6.764;2022-07-23T06:47:12;18.50;99.90
14182;DHT22;7171;50.936;6.764;2022-07-23T06:49:41;18.50;99.90
14182;DHT22;7171;50.936;6.764;2022-07-23T06:52:07;18.50;99.90
14182;DHT22;7171;50.936;6.764;2022-07-23T06:54:35;18.60;99.90
14182;DHT22;7171;50.936;6.764;2022-07-23T06:57:01;18.60;99.90
14182;DHT22;7171;50.936;6.764;2022-07-23T06:59:28;18.60;99.90
14182;DHT22;7171;50.936;6.764;2022-07-23T07:01:55;18.70;99.90
14182;DHT22;7171;50.936;6.764;2022-07-23T07:04:23;18.70;99.90
14182;DHT22;7171;50.936;6.764;2022-07-23T07:06:51;18.80;99.90
14182;DHT22;7171;50.936;6.764;2022-07-23T07:09:17;18.70;99.90
14182;DHT22;7171;50.936;6.764;2022-07-23T07:11:44;18.80;99.90
14182;DHT22;7171;50.936;6.764;2022-07-23T07:14:11;18.80;99.90
14182;DHT22;7171;50.936;6.764;2022-07-23T07:16:38;18.80;99.90
14182;DHT22;7171;50.936;6.764;2022-07-23T07:19:04;18.90;99.90
14182;DHT22;7171;50.936;6.764;2022-07-23T07:21:31;19.00;99.90
14182;DHT22;7171;50.936;6.764;2022-07-23T07:23:59;19.10;99.90
14182;DHT22;7171;50.936;6.764;2022-07-23T07:26:26;19.10;99.90
14182;DHT22;7171;50.936;6.764;2022-07-23T07:28:53;19.30;99.90
14182;DHT22;7171;50.936;6.764;2022-07-23T07:31:20;19.30;99.90
14182;DHT22;7171;50.936;6.764;2022-07-23T07:33:46;19.40;99.90
14182;DHT22;7171;50.936;6.764;2022-07-23T07:36:13;19.50;99.90
14182;DHT22;7171;50.936;6.764;2022-07-23T07:38:40;19.60;99.90
14182;DHT22;7171;50.936;6.764;2022-07-23T07:41:08;19.60;99.90
14182;DHT22;7171;50.936;6.764;2022-07-23T07:43:36;19.80;99.90
14182;DHT22;7171;50.936;6.764;2022-07-23T07:46:03;19.70;99.90
14182;DHT22;7171;50.936;6.764;2022-07-23T07:48:29;19.80;99.90
14182;DHT22;7171;50.936;6.764;2022-07-23T07:50:56;19.90;99.90
14182;DHT22;7171;50.936;6.764;2022-07-23T07:53:23;19.80;99.90
14182;DHT22;7171;50.936;6.764;2022-07-23T07:55:50;19.80;99.90
14182;DHT22;7171;50.936;6.764;2022-07-23T07:58:18;19.80;99.90
14182;DHT22;7171;50.936;6.764;2022-07-23T08:00:45;19.70;99.90
14182;DHT22;7171;50.936;6.764;2022-07-23T08:03:11;19.70;99.90
14182;DHT22;7171;50.936;6.764;2022-07-23T08:05:38;19.70;99.90
14182;DHT22;7171;50.936;6.764;2022-07-23T08:08:05;19.70;99.90
14182;DHT22;7171;50.936;6.764;2022-07-23T08:10:32;19.70;99.90
14182;DHT22;7171;50.936;6.764;2022-07-23T08:12:59;19.70;99.90
14182;DHT22;7171;50.936;6.764;2022-07-23T08:15:29;19.80;99.90
14182;DHT22;7171;50.936;6.764;2022-07-23T08:17:56;19.80;99.90
14182;DHT22;7171;50.936;6.764;2022-07-23T08:20:24;19.80;99.90
14182;DHT22;7171;50.936;6.764;2022-07-23T08:22:54;19.80;99.90
14182;DHT22;7171;50.936;6.764;2022-07-23T08:25:22;19.80;99.90
14182;DHT22;7171;50.936;6.764;2022-07-23T08:27:50;19.80;99.90
14182;DHT22;7171;50.936;6.764;2022-07-23T08:30:17;19.90;99.90
14182;DHT22;7171;50.936;6.764;2022-07-23T08:32:50;20.00;99.90
14182;DHT22;7171;50.936;6.764;2022-07-23T08:35:17;20.00;99.90
14182;DHT22;7171;50.936;6.764;2022-07-23T08:37:44;20.00;99.90
14182;DHT22;7171;50.936;6.764;2022-07-23T08:40:12;20.10;99.90
14182;DHT22;7171;50.936;6.764;2022-07-23T08:42:39;20.10;99.90
14182;DHT22;7171;50.936;6.764;2022-07-23T08:45:07;20.10;99.90
14182;DHT22;7171;50.936;6.764;2022-07-23T08:47:36;20.20;99.90
14182;DHT22;7171;50.936;6.764;2022-07-23T08:50:07;20.20;99.90
14182;DHT22;7171;50.936;6.764;2022-07-23T08:52:34;20.30;99.90
14182;DHT22;7171;50.936;6.764;2022-07-23T08:55:03;20.30;99.90
14182;DHT22;7171;50.936;6.764;2022-07-23T08:57:29;20.30;99.90
14182;DHT22;7171;50.936;6.764;2022-07-23T08:59:57;20.40;99.90
14182;DHT22;7171;50.936;6.764;2022-07-23T09:02:23;20.40;99.90
14182;DHT22;7171;50.936;6.764;2022-07-23T09:04:50;20.50;99.90
14182;DHT22;7171;50.936;6.764;2022-07-23T09:07:19;20.50;99.90
14182;DHT22;7171;50.936;6.764;2022-07-23T09:09:45;20.60;99.90
14182;DHT22;7171;50.936;6.764;2022-07-23T09:12:12;20.70;99.90
14182;DHT22;7171;50.936;6.764;2022-07-23T09:14:41;20.80;99.90
14182;DHT22;7171;50.936;6.764;2022-07-23T09:17:09;20.90;99.90
14182;DHT22;7171;50.936;6.764;2022-07-23T09:19:36;21.00;99.90
14182;DHT22;7171;50.936;6.764;2022-07-23T09:22:18;21.10;99.90
14182;DHT22;7171;50.936;6.764;2022-07-23T09:25:04;21.20;99.90
14182;DHT22;7171;50.936;6.764;2022-07-23T09:27:53;21.20;99.90
14182;DHT22;7171;50.936;6.764;2022-07-23T09:30:21;21.30;99.90
14182;DHT22;7171;50.936;6.764;2022-07-23T09:33:06;21.30;99.90
14182;DHT22;7171;50.936;6.764;2022-07-23T09:35:47;21.40;99.90
14182;DHT22;7171;50.936;6.764;2022-07-23T09:38:16;21.40;99.90
14182;DHT22;7171;50.936;6.764;2022-07-23T09:40:44;21.40;99.90
14182;DHT22;7171;50.936;6.764;2022-07-23T09:43:12;21.40;99.90
14182;DHT22;7171;50.936;6.764;2022-07-23T09:45:38;21.50;99.90
14182;DHT22;7171;50.936;6.764;2022-07-23T09:48:14;21.50;99.90
14182;DHT22;7171;50.936;6.764;2022-07-23T09:50:42;21.60;99.90
14182;DHT22;7171;50.936;6.764;2022-07-23T09:53:10;21.70;99.90
14182;DHT22;7171;50.936;6.764;2022-07-23T09:55:51;21.80;99.90
14182;DHT22;7171;50.936;6.764;2022-07-23T09:58:21;21.80;99.90
14182;DHT22;7171;50.936;6.764;2022-07-23T10:00:49;21.90;99.90
14182;DHT22;7171;50.936;6.764;2022-07-23T10:03:18;22.00;99.90
14182;DHT22;7171;50.936;6.764;2022-07-23T10:05:46;22.00;99.90
14182;DHT22;7171;50.936;6.764;2022-07-23T10:08:17;22.00;99.90
14182;DHT22;7171;50.936;6.764;2022-07-23T10:10:46;22.00;99.90
14182;DHT22;7171;50.936;6.764;2022-07-23T10:13:15;22.10;99.90
14182;DHT22;7171;50.936;6.764;2022-07-23T10:15:56;22.10;99.90
14182;DHT22;7171;50.936;6.764;2022-07-23T10:18:23;22.10;99.90
14182;DHT22;7171;50.936;6.764;2022-07-23T10:20:50;22.20;99.90
14182;DHT22;7171;50.936;6.764;2022-07-23T10:23:22;22.20;99.90
14182;DHT22;7171;50.936;6.764;2022-07-23T10:25:57;22.30;99.90
14182;DHT22;7171;50.936;6.764;2022-07-23T10:28:46;22.40;99.90
14182;DHT22;7171;50.936;6.764;2022-07-23T10:31:20;22.50;99.90
14182;DHT22;7171;50.936;6.764;2022-07-23T10:33:57;22.50;99.90
14182;DHT22;7171;50.936;6.764;2022-07-23T10:36:32;22.60;99.90
14182;DHT22;7171;50.936;6.764;2022-07-23T10:39:05;22.60;99.90
14182;DHT22;7171;50.936;6.764;2022-07-23T10:41:36;22.70;99.90
14182;DHT22;7171;50.936;6.764;2022-07-23T10:44:09;22.70;99.90
14182;DHT22;7171;50.936;6.764;2022-07-23T10:46:54;22.70;99.90
14182;DHT22;7171;50.936;6.764;2022-07-23T10:49:27;22.80;99.90
14182;DHT22;7171;50.936;6.764;2022-07-23T10:52:16;22.90;99.90
14182;DHT22;7171;50.936;6.764;2022-07-23T10:54:45;22.90;99.90
14182;DHT22;7171;50.936;6.764;2022-07-23T10:57:12;22.90;99.90
14182;DHT22;7171;50.936;6.764;2022-07-23T11:00:13;23.00;99.90
14182;DHT22;7171;50.936;6.764;2022-07-23T11:02:43;23.00;99.90
14182;DHT22;7171;50.936;6.764;2022-07-23T11:05:12;23.10;99.90
14182;DHT22;7171;50.936;6.764;2022-07-23T11:10:53;23.10;99.90
14182;DHT22;7171;50.936;6.764;2022-07-23T11:19:07;23.30;99.90
14182;DHT22;7171;50.936;6.764;2022-07-23T11:21:51;22.30;99.90
14182;DHT22;7171;50.936;6.764;2022-07-23T11:24:20;23.40;99.90
14182;DHT22;7171;50.936;6.764;2022-07-23T11:27:01;23.50;99.90
14182;DHT22;7171;50.936;6.764;2022-07-23T11:29:45;23.50;99.90
14182;DHT22;7171;50.936;6.764;2022-07-23T11:32:38;23.50;99.90
14182;DHT22;7171;50.936;6.764;2022-07-23T11:35:20;23.60;99.90
14182;DHT22;7171;50.936;6.764;2022-07-23T11:37:48;23.60;99.90
14182;DHT22;7171;50.936;6.764;2022-07-23T11:40:19;23.60;99.90
14182;DHT22;7171;50.936;6.764;2022-07-23T11:42:55;23.70;99.90
14182;DHT22;7171;50.936;6.764;2022-07-23T11:45:23;23.70;99.90
14182;DHT22;7171;50.936;6.764;2022-07-23T11:47:51;23.80;99.90
14182;DHT22;7171;50.936;6.764;2022-07-23T11:50:18;23.80;99.90
14182;DHT22;7171;50.936;6.764;2022-07-23T11:52:45;23.90;99.90
14182;DHT22;7171;50.936;6.764;2022-07-23T11:55:12;24.00;99.90
14182;DHT22;7171;50.936;6.764;2022-07-23T11:57:42;24.10;99.90
14182;DHT22;7171;50.936;6.764;2022-07-23T12:00:11;24.20;99.90
14182;DHT22;7171;50.936;6.764;2022-07-23T12:02:38;24.30;99.90
14182;DHT22;7171;50.936;6.764;2022-07-23T12:22:36;25.10;99.90
14182;DHT22;7171;50.936;6.764;2022-07-23T12:35:12;25.20;99.90
14182;DHT22;7171;50.936;6.764;2022-07-23T12:37:41;25.20;99.90
14182;DHT22;7171;50.936;6.764;2022-07-23T12:40:29;25.20;99.90
14182;DHT22;7171;50.936;6.764;2022-07-23T12:42:58;25.10;99.90
14182;DHT22;7171;50.936;6.764;2022-07-23T12:45:26;25.10;99.90
14182;DHT22;7171;50.936;6.764;2022-07-23T12:48:05;25.10;99.90
14182;DHT22;7171;50.936;6.764;2022-07-23T12:50:51;25.10;99.90
14182;DHT22;7171;50.936;6.764;2022-07-23T12:53:21;25.20;99.90
14182;DHT22;7171;50.936;6.764;2022-07-23T12:55:49;25.20;99.90
14182;DHT22;7171;50.936;6.764;2022-07-23T12:58:19;25.20;99.90
14182;DHT22;7171;50.936;6.764;2022-07-23T13:01:04;25.30;99.90
14182;DHT22;7171;50.936;6.764;2022-07-23T13:03:37;25.40;99.90
14182;DHT22;7171;50.936;6.764;2022-07-23T13:06:06;25.40;99.90
14182;DHT22;7171;50.936;6.764;2022-07-23T13:08:36;25.50;99.90
14182;DHT22;7171;50.936;6.764;2022-07-23T13:11:03;25.60;99.90
14182;DHT22;7171;50.936;6.764;2022-07-23T13:13:33;25.60;99.90
14182;DHT22;7171;50.936;6.764;2022-07-23T13:16:00;25.80;99.90
14182;DHT22;7171;50.936;6.764;2022-07-23T13:18:28;25.60;99.90
14182;DHT22;7171;50.936;6.764;2022-07-23T13:20:55;25.60;99.90
14182;DHT22;7171;50.936;6.764;2022-07-23T13:23:22;25.60;99.90
14182;DHT22;7171;50.936;6.764;2022-07-23T13:25:50;25.60;99.90
14182;DHT22;7171;50.936;6.764;2022-07-23T13:28:19;25.60;99.90
14182;DHT22;7171;50.936;6.764;2022-07-23T13:30:47;25.60;99.90
14182;DHT22;7171;50.936;6.764;2022-07-23T13:33:15;25.70;99.90
14182;DHT22;7171;50.936;6.764;2022-07-23T13:35:42;25.70;99.90
14182;DHT22;7171;50.936;6.764;2022-07-23T13:38:09;25.80;99.90
14182;DHT22;7171;50.936;6.764;2022-07-23T13:40:37;25.80;99.90
14182;DHT22;7171;50.936;6.764;2022-07-23T13:43:06;25.80;99.90
14182;DHT22;7171;50.936;6.764;2022-07-23T13:45:33;25.80;99.90
14182;DHT22;7171;50.936;6.764;2022-07-23T13:48:01;25.80;99.90
14182;DHT22;7171;50.936;6.764;2022-07-23T13:50:28;25.90;99.90
14182;DHT22;7171;50.936;6.764;2022-07-23T13:52:55;26.00;99.90
14182;DHT22;7171;50.936;6.764;2022-07-23T13:55:22;26.00;99.90
14182;DHT22;7171;50.936;6.764;2022-07-23T14:00:17;26.10;99.90
14182;DHT22;7171;50.936;6.764;2022-07-23T14:02:44;26.10;99.90
14182;DHT22;7171;50.936;6.764;2022-07-23T14:07:39;26.20;99.90
14182;DHT22;7171;50.936;6.764;2022-07-23T14:10:08;26.20;99.90
14182;DHT22;7171;50.936;6.764;2022-07-23T14:12:35;26.20;99.90
14182;DHT22;7171;50.936;6.764;2022-07-23T14:15:03;26.30;99.90
14182;DHT22;7171;50.936;6.764;2022-07-23T14:17:32;26.30;99.90
14182;DHT22;7171;50.936;6.764;2022-07-23T14:19:59;26.40;99.90
14182;DHT22;7171;50.936;6.764;2022-07-23T14:22:26;26.40;99.90
14182;DHT22;7171;50.936;6.764;2022-07-23T14:24:52;26.50;99.90
14182;DHT22;7171;50.936;6.764;2022-07-23T14:27:19;26.50;99.90
14182;DHT22;7171;50.936;6.764;2022-07-23T14:29:46;26.60;99.90
14182;DHT22;7171;50.936;6.764;2022-07-23T14:32:13;26.70;99.90
14182;DHT22;7171;50.936;6.764;2022-07-23T14:34:41;26.70;99.90
14182;DHT22;7171;50.936;6.764;2022-07-23T14:37:09;26.60;99.90
14182;DHT22;7171;50.936;6.764;2022-07-23T14:39:36;26.70;99.90
14182;DHT22;7171;50.936;6.764;2022-07-23T14:42:03;26.70;99.90
14182;DHT22;7171;50.936;6.764;2022-07-23T14:44:30;26.60;99.90
14182;DHT22;7171;50.936;6.764;2022-07-23T14:46:57;26.60;99.90
14182;DHT22;7171;50.936;6.764;2022-07-23T14:49:25;26.60;99.90
14182;DHT22;7171;50.936;6.764;2022-07-23T14:51:53;26.50;99.90
14182;DHT22;7171;50.936;6.764;2022-07-23T14:54:20;26.60;99.90
14182;DHT22;7171;50.936;6.764;2022-07-23T14:56:47;26.60;99.90
14182;DHT22;7171;50.936;6.764;2022-07-23T14:59:14;26.60;99.90
14182;DHT22;7171;50.936;6.764;2022-07-23T15:01:41;26.70;99.90
14182;DHT22;7171;50.936;6.764;2022-07-23T15:04:07;26.80;99.90
14182;DHT22;7171;50.936;6.764;2022-07-23T15:06:34;26.80;99.90
14182;DHT22;7171;50.936;6.764;2022-07-23T15:09:02;26.90;99.90
14182;DHT22;7171;50.936;6.764;2022-07-23T15:11:29;27.00;99.90
14182;DHT22;7171;50.936;6.764;2022-07-23T15:13:59;27.10;99.90
14182;DHT22;7171;50.936;6.764;2022-07-23T15:16:26;27.20;99.90
14182;DHT22;7171;50.936;6.764;2022-07-23T15:18:53;27.30;99.90
14182;DHT22;7171;50.936;6.764;2022-07-23T15:21:20;27.30;99.90
14182;DHT22;7171;50.936;6.764;2022-07-23T15:23:47;27.30;99.90
14182;DHT22;7171;50.936;6.764;2022-07-23T15:26:16;27.30;99.90
14182;DHT22;7171;50.936;6.764;2022-07-23T15:28:44;27.20;99.90
14182;DHT22;7171;50.936;6.764;2022-07-23T15:31:11;27.20;99.90
14182;DHT22;7171;50.936;6.764;2022-07-23T15:33:37;27.10;99.90
14182;DHT22;7171;50.936;6.764;2022-07-23T15:36:06;27.10;99.90
14182;DHT22;7171;50.936;6.764;2022-07-23T15:38:33;27.20;99.90
14182;DHT22;7171;50.936;6.764;2022-07-23T15:41:00;27.20;99.90
14182;DHT22;7171;50.936;6.764;2022-07-23T15:43:28;27.20;99.90
14182;DHT22;7171;50.936;6.764;2022-07-23T15:45:55;27.10;99.90
14182;DHT22;7171;50.936;6.764;2022-07-23T15:48:22;27.10;99.90
14182;DHT22;7171;50.936;6.764;2022-07-23T15:50:49;27.10;99.90
14182;DHT22;7171;50.936;6.764;2022-07-23T15:53:17;27.00;99.90
14182;DHT22;7171;50.936;6.764;2022-07-23T15:55:45;26.90;99.90
14182;DHT22;7171;50.936;6.764;2022-07-23T15:58:12;26.80;99.90
14182;DHT22;7171;50.936;6.764;2022-07-23T16:00:41;26.80;99.90
14182;DHT22;7171;50.936;6.764;2022-07-23T16:03:08;26.80;99.90
14182;DHT22;7171;50.936;6.764;2022-07-23T16:05:35;26.80;99.90
14182;DHT22;7171;50.936;6.764;2022-07-23T16:08:03;26.80;98.80
14182;DHT22;7171;50.936;6.764;2022-07-23T16:10:30;26.80;99.70
14182;DHT22;7171;50.936;6.764;2022-07-23T16:12:57;26.70;99.90
14182;DHT22;7171;50.936;6.764;2022-07-23T16:15:25;26.70;99.90
14182;DHT22;7171;50.936;6.764;2022-07-23T16:17:54;26.70;99.90
14182;DHT22;7171;50.936;6.764;2022-07-23T16:20:21;26.70;99.90
14182;DHT22;7171;50.936;6.764;2022-07-23T16:22:48;26.70;99.90
14182;DHT22;7171;50.936;6.764;2022-07-23T16:25:15;26.60;99.90
14182;DHT22;7171;50.936;6.764;2022-07-23T16:27:42;26.50;99.90
14182;DHT22;7171;50.936;6.764;2022-07-23T16:30:10;26.50;99.80
14182;DHT22;7171;50.936;6.764;2022-07-23T16:32:37;26.40;99.60